createdAt,value
2019-04-20T00:00:10.015Z,9.20
2019-04-20T00:02:37.752Z,9.10
2019-04-20T00:05:05.549Z,9.30
2019-04-20T00:07:35.611Z,9.30
2019-04-20T00:10:08.722Z,9.20
2019-04-20T00:12:42.313Z,9.10
2019-04-20T00:15:00.535Z,9.00
2019-04-20T00:17:28.631Z,9.00
2019-04-20T00:19:57.759Z,8.90
2019-04-20T00:22:40.909Z,8.90
2019-04-20T00:25:22.230Z,8.80
2019-04-20T00:28:25.036Z,8.80
2019-04-20T00:30:54.429Z,8.90
2019-04-20T00:33:14.650Z,8.80
2019-04-20T00:35:33.789Z,8.60
2019-04-20T00:38:01.275Z,8.50
2019-04-20T00:40:28.609Z,8.60
2019-04-20T00:42:58.731Z,8.60
2019-04-20T00:45:29.553Z,8.60
2019-04-20T00:48:02.469Z,8.70
2019-04-20T00:50:34.235Z,8.70
2019-04-20T00:53:05.796Z,8.60
2019-04-20T00:55:20.963Z,8.50
2019-04-20T00:57:54.907Z,8.50
2019-04-20T01:00:35.733Z,8.40
2019-04-20T01:03:04.000Z,8.40
2019-04-20T01:05:46.409Z,8.20
2019-04-20T01:08:08.321Z,8.10
2019-04-20T01:10:41.642Z,8.10
2019-04-20T01:13:10.454Z,8.10
2019-04-20T01:15:46.454Z,7.90
2019-04-20T01:18:03.096Z,7.80
2019-04-20T01:20:30.373Z,7.90
2019-04-20T01:23:04.848Z,7.80
2019-04-20T01:25:32.268Z,7.80
2019-04-20T01:28:17.654Z,7.60
2019-04-20T01:30:32.361Z,7.60
2019-04-20T01:33:11.344Z,7.50
2019-04-20T01:35:39.517Z,7.40
2019-04-20T01:38:16.700Z,7.40
2019-04-20T01:40:21.123Z,7.30
2019-04-20T01:42:48.944Z,7.40
2019-04-20T01:45:22.414Z,7.30
2019-04-20T01:47:49.395Z,7.30
2019-04-20T01:50:21.204Z,7.30
2019-04-20T01:52:56.508Z,7.20
2019-04-20T01:55:35.910Z,7.30
2019-04-20T01:58:11.906Z,7.30
2019-04-20T02:00:34.846Z,7.40
2019-04-20T02:03:15.234Z,7.20
2019-04-20T02:05:54.036Z,7.10
2019-04-20T02:08:14.650Z,7.10
2019-04-20T02:10:47.035Z,7.00
2019-04-20T02:13:09.768Z,7.10
2019-04-20T02:15:44.459Z,7.00
2019-04-20T02:18:20.504Z,6.90
2019-04-20T02:20:54.604Z,6.90
2019-04-20T02:23:18.831Z,6.80
2019-04-20T02:25:35.688Z,6.70
2019-04-20T02:28:23.125Z,6.70
2019-04-20T02:31:04.685Z,6.70
2019-04-20T02:33:42.175Z,6.70
2019-04-20T02:36:27.862Z,6.60
2019-04-20T02:41:29.914Z,6.40
2019-04-20T02:46:24.634Z,6.40
2019-04-20T02:49:06.043Z,6.40
2019-04-20T02:51:23.366Z,6.30
2019-04-20T02:54:06.158Z,6.30
2019-04-20T02:56:26.494Z,6.30
2019-04-20T02:58:54.014Z,6.30
2019-04-20T03:01:32.421Z,6.30
2019-04-20T03:03:49.174Z,6.10
2019-04-20T03:06:23.028Z,6.00
2019-04-20T03:09:06.687Z,5.90
2019-04-20T03:11:44.825Z,5.80
2019-04-20T03:13:59.015Z,5.90
2019-04-20T03:16:31.100Z,6.00
2019-04-20T03:18:53.538Z,6.10
2019-04-20T03:21:32.780Z,6.00
2019-04-20T03:23:59.787Z,6.10
2019-04-20T03:26:48.035Z,5.90
2019-04-20T03:29:37.048Z,5.90
2019-04-20T03:35:12.088Z,5.60
2019-04-20T03:37:30.619Z,5.50
2019-04-20T03:39:54.058Z,5.50
2019-04-20T03:42:09.298Z,5.40
2019-04-20T03:44:39.033Z,5.60
2019-04-20T03:47:08.833Z,5.60
2019-04-20T03:50:14.674Z,5.50
2019-04-20T03:52:33.018Z,5.40
2019-04-20T03:55:16.109Z,5.40
2019-04-20T03:58:24.141Z,5.20
2019-04-20T04:00:59.269Z,5.10
2019-04-20T04:03:53.246Z,5.10
2019-04-20T04:06:12.843Z,5.20
2019-04-20T04:08:37.291Z,5.10
2019-04-20T04:11:17.542Z,5.00
2019-04-20T04:13:29.089Z,5.20
2019-04-20T04:16:02.798Z,5.20
2019-04-20T04:18:31.759Z,5.20
2019-04-20T04:21:01.918Z,5.30
2019-04-20T04:23:40.837Z,5.10
2019-04-20T04:28:39.708Z,4.90
2019-04-20T04:31:16.395Z,4.90
2019-04-20T04:36:01.138Z,5.00
2019-04-20T04:38:37.758Z,5.00
2019-04-20T04:43:35.631Z,5.10
2019-04-20T04:45:43.149Z,5.10
2019-04-20T04:48:14.739Z,5.20
2019-04-20T04:50:47.457Z,5.20
2019-04-20T04:53:17.159Z,5.10
2019-04-20T04:55:47.722Z,5.20
2019-04-20T04:58:06.533Z,5.30
2019-04-20T05:00:34.805Z,5.30
2019-04-20T05:03:23.415Z,5.30
2019-04-20T05:06:06.646Z,5.40
2019-04-20T05:08:24.069Z,5.50
2019-04-20T05:10:45.744Z,5.50
2019-04-20T05:13:13.675Z,5.70
2019-04-20T05:15:52.571Z,5.70
2019-04-20T05:18:36.031Z,5.80
2019-04-20T05:20:58.698Z,5.90
2019-04-20T05:23:28.058Z,6.00
2019-04-20T05:26:20.424Z,6.20
2019-04-20T05:28:45.040Z,6.40
2019-04-20T05:31:03.549Z,7.60
2019-04-20T05:33:56.123Z,7.80
2019-04-20T05:36:18.577Z,7.50
2019-04-20T05:38:47.076Z,7.50
2019-04-20T05:41:13.955Z,8.80
2019-04-20T05:43:59.788Z,9.70
2019-04-20T05:46:32.071Z,10.30
2019-04-20T05:49:02.778Z,10.70
2019-04-20T05:51:37.987Z,11.20
2019-04-20T05:54:05.657Z,11.40
2019-04-20T05:56:36.607Z,11.40
2019-04-20T05:58:59.596Z,11.70
2019-04-20T06:01:31.827Z,12.20
2019-04-20T06:03:53.878Z,12.60
2019-04-20T06:06:27.381Z,12.70
2019-04-20T06:08:59.187Z,13.00
2019-04-20T06:11:26.721Z,12.90
2019-04-20T06:14:02.615Z,13.20
2019-04-20T06:16:50.622Z,13.70
2019-04-20T06:19:35.476Z,14.20
2019-04-20T06:21:55.177Z,14.70
2019-04-20T06:24:26.731Z,15.10
2019-04-20T06:29:18.306Z,15.10
2019-04-20T06:31:51.970Z,15.40
2019-04-20T06:34:30.646Z,15.30
2019-04-20T06:36:53.519Z,16.20
2019-04-20T06:39:26.224Z,16.50
2019-04-20T06:42:07.145Z,15.90
2019-04-20T06:44:26.666Z,16.10
2019-04-20T06:47:01.362Z,16.30
2019-04-20T06:49:22.689Z,16.50
2019-04-20T06:52:15.425Z,17.20
2019-04-20T06:54:54.153Z,17.20
2019-04-20T06:57:25.574Z,17.00
2019-04-20T07:02:29.752Z,18.20
2019-04-20T07:04:58.024Z,18.20
2019-04-20T07:07:24.177Z,18.50
2019-04-20T07:10:05.054Z,18.40
2019-04-20T07:12:17.228Z,17.90
2019-04-20T07:14:40.517Z,18.10
2019-04-20T07:17:45.593Z,18.40
2019-04-20T07:20:10.130Z,18.60
2019-04-20T07:23:03.546Z,19.40
2019-04-20T07:25:19.062Z,20.50
2019-04-20T07:27:48.973Z,20.50
2019-04-20T07:30:12.401Z,19.50
2019-04-20T07:32:52.562Z,20.30
2019-04-20T07:35:17.409Z,21.10
2019-04-20T07:40:17.640Z,21.20
2019-04-20T07:42:47.987Z,21.40
2019-04-20T07:45:19.095Z,21.40
2019-04-20T07:47:46.605Z,21.60
2019-04-20T07:50:05.159Z,22.20
2019-04-20T07:52:31.905Z,22.80
2019-04-20T07:55:26.030Z,23.00
2019-04-20T07:57:34.152Z,23.20
2019-04-20T08:00:06.590Z,23.50
2019-04-20T08:03:03.097Z,24.20
2019-04-20T08:05:30.758Z,24.90
2019-04-20T08:07:56.836Z,24.40
2019-04-20T08:10:36.565Z,24.70
2019-04-20T08:13:14.390Z,26.40
2019-04-20T08:15:43.232Z,25.90
2019-04-20T08:18:01.277Z,26.70
2019-04-20T08:20:30.982Z,26.10
2019-04-20T08:23:07.554Z,25.50
2019-04-20T08:25:23.783Z,26.10
2019-04-20T08:27:59.539Z,26.80
2019-04-20T08:30:56.034Z,27.00
2019-04-20T08:33:27.994Z,27.50
2019-04-20T08:35:59.715Z,26.20
2019-04-20T08:38:55.989Z,26.50
2019-04-20T08:40:52.092Z,26.20
2019-04-20T08:43:29.910Z,26.20
2019-04-20T08:45:52.028Z,25.80
2019-04-20T08:48:27.517Z,26.90
2019-04-20T08:50:45.186Z,26.50
2019-04-20T08:53:20.496Z,26.30
2019-04-20T08:55:43.411Z,26.40
2019-04-20T08:57:54.426Z,27.70
2019-04-20T09:00:29.356Z,28.10
2019-04-20T09:02:57.846Z,27.80
2019-04-20T09:05:30.276Z,28.20
2019-04-20T09:08:02.549Z,27.90
2019-04-20T09:10:37.995Z,27.80
2019-04-20T09:13:04.522Z,27.00
2019-04-20T09:15:17.322Z,27.40
2019-04-20T09:18:13.576Z,27.30
2019-04-20T09:20:44.575Z,27.20
2019-04-20T09:23:25.142Z,27.90
2019-04-20T09:26:02.423Z,28.30
2019-04-20T09:28:31.907Z,27.80
2019-04-20T09:31:25.610Z,28.20
2019-04-20T09:34:01.591Z,28.10
2019-04-20T09:36:40.564Z,28.40
2019-04-20T09:39:11.369Z,28.70
2019-04-20T09:41:59.870Z,26.30
2019-04-20T09:44:13.556Z,27.30
2019-04-20T09:46:46.050Z,28.30
2019-04-20T09:49:20.149Z,28.60
2019-04-20T09:51:55.273Z,28.80
2019-04-20T09:54:26.723Z,29.80
2019-04-20T09:56:59.266Z,28.80
2019-04-20T09:59:22.035Z,28.80
2019-04-20T10:01:41.890Z,27.80
2019-04-20T10:04:03.872Z,29.40
2019-04-20T10:06:34.548Z,29.00
2019-04-20T10:09:01.887Z,29.40
2019-04-20T10:11:29.842Z,29.10
2019-04-20T10:13:58.533Z,28.80
2019-04-20T10:16:26.030Z,29.00
2019-04-20T10:18:55.306Z,29.70
2019-04-20T10:21:23.651Z,29.50
2019-04-20T10:23:50.969Z,29.30
2019-04-20T10:26:18.675Z,28.70
2019-04-20T10:28:45.921Z,29.60
2019-04-20T10:31:14.523Z,28.60
2019-04-20T10:33:41.820Z,30.30
2019-04-20T10:36:19.465Z,30.20
2019-04-20T10:38:46.566Z,30.50
2019-04-20T10:41:25.676Z,32.00
2019-04-20T10:43:42.852Z,31.90
2019-04-20T10:46:11.080Z,31.80
2019-04-20T10:48:44.012Z,31.90
2019-04-20T10:51:08.417Z,31.90
2019-04-20T10:53:36.702Z,31.80
2019-04-20T10:56:05.061Z,30.80
2019-04-20T10:58:33.652Z,31.70
2019-04-20T11:01:01.760Z,30.00
2019-04-20T11:03:29.082Z,32.10
2019-04-20T11:05:56.537Z,32.30
2019-04-20T11:08:24.497Z,30.20
2019-04-20T11:11:04.409Z,31.30
2019-04-20T11:13:21.415Z,30.80
2019-04-20T11:15:48.585Z,31.80
2019-04-20T11:18:15.608Z,32.00
2019-04-20T11:20:43.612Z,32.60
2019-04-20T11:23:10.908Z,33.10
2019-04-20T11:25:38.021Z,32.80
2019-04-20T11:28:06.020Z,30.90
2019-04-20T11:30:34.088Z,30.90
2019-04-20T11:33:02.311Z,32.40
2019-04-20T11:35:34.440Z,32.60
2019-04-20T11:37:58.575Z,30.60
2019-04-20T11:40:26.706Z,32.70
2019-04-20T11:42:53.860Z,32.40
2019-04-20T11:45:22.593Z,32.90
2019-04-20T11:47:49.918Z,33.40
2019-04-20T11:50:17.822Z,33.00
2019-04-20T11:52:48.108Z,31.90
2019-04-20T11:55:13.928Z,32.60
2019-04-20T11:57:40.945Z,32.80
2019-04-20T12:00:08.905Z,32.60
2019-04-20T12:03:13.895Z,33.70
2019-04-20T12:05:39.676Z,34.80
2019-04-20T12:08:07.038Z,34.30
2019-04-20T12:10:35.032Z,34.00
2019-04-20T12:13:02.106Z,33.10
2019-04-20T12:15:32.169Z,32.10
2019-04-20T12:17:59.766Z,33.60
2019-04-20T12:20:27.033Z,33.90
2019-04-20T12:22:54.603Z,33.60
2019-04-20T12:25:21.819Z,33.30
2019-04-20T12:27:54.052Z,32.50
2019-04-20T12:30:19.604Z,32.50
2019-04-20T12:32:51.910Z,32.30
2019-04-20T12:35:16.163Z,32.80
2019-04-20T12:37:45.041Z,33.40
2019-04-20T12:40:14.272Z,31.90
2019-04-20T12:42:41.314Z,32.60
2019-04-20T12:45:09.617Z,31.40
2019-04-20T12:47:37.855Z,32.80
2019-04-20T12:50:05.776Z,32.90
2019-04-20T12:52:32.858Z,32.60
2019-04-20T12:55:02.780Z,32.90
2019-04-20T12:57:29.068Z,32.90
2019-04-20T12:59:57.284Z,32.20
2019-04-20T13:02:25.157Z,30.60
2019-04-20T13:04:53.366Z,30.70
2019-04-20T13:07:22.534Z,29.90
2019-04-20T13:09:51.100Z,29.80
2019-04-20T13:12:56.429Z,30.30
2019-04-20T13:15:56.310Z,29.80
2019-04-20T13:18:31.324Z,29.10
2019-04-20T13:20:59.670Z,29.60
2019-04-20T13:23:27.214Z,28.70
2019-04-20T13:25:57.115Z,29.20
2019-04-20T13:28:26.116Z,29.90
2019-04-20T13:30:53.609Z,30.80
2019-04-20T13:33:20.973Z,31.10
2019-04-20T13:35:48.208Z,31.40
2019-04-20T13:38:16.216Z,31.80
2019-04-20T13:40:43.971Z,31.00
2019-04-20T13:43:12.042Z,30.10
2019-04-20T13:45:39.311Z,30.00
2019-04-20T13:48:06.634Z,30.40
2019-04-20T13:50:34.335Z,30.20
2019-04-20T13:53:01.444Z,29.50
2019-04-20T13:55:30.197Z,29.60
2019-04-20T13:58:05.461Z,27.50
2019-04-20T14:00:55.223Z,27.50
2019-04-20T14:03:24.600Z,27.40
2019-04-20T14:05:52.957Z,27.60
2019-04-20T14:08:25.314Z,27.60
2019-04-20T14:10:53.453Z,26.90
2019-04-20T14:13:23.537Z,26.50
2019-04-20T14:15:49.561Z,27.20
2019-04-20T14:18:17.406Z,27.10
2019-04-20T14:20:44.689Z,27.70
2019-04-20T14:23:12.731Z,27.80
2019-04-20T14:25:40.829Z,26.80
2019-04-20T14:28:09.086Z,26.40
2019-04-20T14:30:37.328Z,26.00
2019-04-20T14:33:05.212Z,26.10
2019-04-20T14:35:32.704Z,26.10
2019-04-20T14:37:59.773Z,26.70
2019-04-20T14:40:28.234Z,26.40
2019-04-20T14:42:56.922Z,25.90
2019-04-20T14:45:24.734Z,25.80
2019-04-20T14:47:51.995Z,25.70
2019-04-20T14:50:20.587Z,26.00
2019-04-20T14:52:47.499Z,26.10
2019-04-20T14:55:17.232Z,26.00
2019-04-20T14:57:43.590Z,26.50
2019-04-20T15:00:27.715Z,26.60
2019-04-20T15:02:59.334Z,26.60
2019-04-20T15:05:26.498Z,27.00
2019-04-20T15:07:54.447Z,27.20
2019-04-20T15:10:22.614Z,26.60
2019-04-20T15:12:55.856Z,26.00
2019-04-20T15:15:20.695Z,25.90
2019-04-20T15:17:53.421Z,26.10
2019-04-20T15:20:29.713Z,26.00
2019-04-20T15:22:59.305Z,25.50
2019-04-20T15:25:27.447Z,25.60
2019-04-20T15:27:54.525Z,25.70
2019-04-20T15:30:22.368Z,26.20
2019-04-20T15:32:49.323Z,25.70
2019-04-20T15:35:19.041Z,25.70
2019-04-20T15:37:45.118Z,25.40
2019-04-20T15:40:13.071Z,25.80
2019-04-20T15:42:51.484Z,25.60
2019-04-20T15:45:09.501Z,25.40
2019-04-20T15:47:36.607Z,26.00
2019-04-20T15:50:05.388Z,25.90
2019-04-20T15:52:37.610Z,25.70
2019-04-20T15:55:11.849Z,25.20
2019-04-20T15:57:31.655Z,25.60
2019-04-20T16:00:00.357Z,25.90
2019-04-20T16:02:33.585Z,25.50
2019-04-20T16:05:14.433Z,25.00
2019-04-20T16:07:47.615Z,25.00
2019-04-20T16:10:10.521Z,25.20
2019-04-20T16:12:38.589Z,24.90
2019-04-20T16:15:07.339Z,25.40
2019-04-20T16:17:39.174Z,26.20
2019-04-20T16:20:11.152Z,26.90
2019-04-20T16:22:34.407Z,27.60
2019-04-20T16:25:15.052Z,27.40
2019-04-20T16:27:43.521Z,27.40
2019-04-20T16:30:11.685Z,28.00
2019-04-20T16:32:38.806Z,27.30
2019-04-20T16:35:06.626Z,27.10
2019-04-20T16:37:34.805Z,26.40
2019-04-20T16:40:04.261Z,25.40
2019-04-20T16:42:32.189Z,24.50
2019-04-20T16:44:59.221Z,24.20
2019-04-20T16:47:26.517Z,24.20
2019-04-20T16:49:55.059Z,24.00
2019-04-20T16:52:23.043Z,23.80
2019-04-20T16:54:50.351Z,23.60
2019-04-20T16:57:17.722Z,23.50
2019-04-20T16:59:48.952Z,23.40
2019-04-20T17:02:16.551Z,23.30
2019-04-20T17:04:47.480Z,23.10
2019-04-20T17:07:21.175Z,22.80
2019-04-20T17:09:49.647Z,22.70
2019-04-20T17:12:17.710Z,22.70
2019-04-20T17:14:45.756Z,22.70
2019-04-20T17:17:13.525Z,22.60
2019-04-20T17:19:41.776Z,22.40
2019-04-20T17:22:09.611Z,22.20
2019-04-20T17:24:37.708Z,22.10
2019-04-20T17:27:13.103Z,22.10
2019-04-20T17:29:54.642Z,22.20
2019-04-20T17:32:23.278Z,21.80
2019-04-20T17:35:01.767Z,21.80
2019-04-20T17:37:20.611Z,21.60
2019-04-20T17:40:06.790Z,21.50
2019-04-20T17:42:35.272Z,21.40
2019-04-20T17:44:56.682Z,21.30
2019-04-20T17:47:39.154Z,21.20
2019-04-20T17:50:06.902Z,21.00
2019-04-20T17:52:38.022Z,20.90
2019-04-20T17:54:49.574Z,20.70
2019-04-20T17:57:17.243Z,20.60
2019-04-20T17:59:53.196Z,20.50
2019-04-20T18:03:04.627Z,20.30
2019-04-20T18:05:51.646Z,20.20
2019-04-20T18:08:20.893Z,20.00
2019-04-20T18:10:41.880Z,19.80
2019-04-20T18:12:58.556Z,19.60
2019-04-20T18:15:43.147Z,19.50
2019-04-20T18:18:35.321Z,19.40
2019-04-20T18:21:10.816Z,19.30
2019-04-20T18:23:41.394Z,19.30
2019-04-20T18:26:30.089Z,19.20
2019-04-20T18:29:05.178Z,18.90
2019-04-20T18:31:43.720Z,18.80
2019-04-20T18:34:20.274Z,18.60
2019-04-20T18:36:47.506Z,18.40
2019-04-20T18:39:16.200Z,18.10
2019-04-20T18:41:48.586Z,18.00
2019-04-20T18:44:10.971Z,17.80
2019-04-20T18:47:00.645Z,17.50
2019-04-20T18:49:25.118Z,17.40
2019-04-20T18:51:37.655Z,17.20
2019-04-20T18:54:08.482Z,17.00
2019-04-20T18:56:40.305Z,16.80
2019-04-20T18:59:03.095Z,16.60
2019-04-20T19:01:34.852Z,16.50
2019-04-20T19:03:59.667Z,16.40
2019-04-20T19:06:27.736Z,16.10
2019-04-20T19:08:55.906Z,16.10
2019-04-20T19:11:25.764Z,16.00
2019-04-20T19:14:22.256Z,15.80
2019-04-20T19:16:55.404Z,15.80
2019-04-20T19:19:44.524Z,15.70
2019-04-20T19:22:07.918Z,15.60
2019-04-20T19:24:36.780Z,15.40
2019-04-20T19:27:10.144Z,15.20
2019-04-20T19:29:37.634Z,15.20
2019-04-20T19:32:19.539Z,15.20
2019-04-20T19:34:45.289Z,15.00
2019-04-20T19:37:13.729Z,15.10
2019-04-20T19:39:43.824Z,14.80
2019-04-20T19:42:11.764Z,14.80
2019-04-20T19:44:42.054Z,14.70
2019-04-20T19:47:16.884Z,14.60
2019-04-20T19:49:35.723Z,14.40
2019-04-20T19:52:27.154Z,14.40
2019-04-20T19:54:43.688Z,14.10
2019-04-20T19:57:06.182Z,14.10
2019-04-20T19:59:29.602Z,13.90
2019-04-20T20:01:49.652Z,13.90
2019-04-20T20:04:17.570Z,13.90
2019-04-20T20:06:49.700Z,13.70
2019-04-20T20:09:15.098Z,13.70
2019-04-20T20:11:45.018Z,13.50
2019-04-20T20:14:13.485Z,13.40
2019-04-20T20:17:01.491Z,13.30
2019-04-20T20:19:22.989Z,13.30
2019-04-20T20:21:55.469Z,13.30
2019-04-20T20:24:10.728Z,13.20
2019-04-20T20:26:42.606Z,13.10
2019-04-20T20:29:18.407Z,13.20
2019-04-20T20:31:54.879Z,12.90
2019-04-20T20:34:12.887Z,12.30
2019-04-20T20:36:43.832Z,13.00
2019-04-20T20:39:15.621Z,13.00
2019-04-20T20:41:49.154Z,13.10
2019-04-20T20:44:10.241Z,12.90
2019-04-20T20:46:39.417Z,12.90
2019-04-20T20:49:16.644Z,12.90
2019-04-20T20:51:52.811Z,12.90
2019-04-20T20:54:09.217Z,12.70
2019-04-20T20:56:30.915Z,12.70
2019-04-20T20:59:04.172Z,12.60
2019-04-20T21:01:28.201Z,12.60
2019-04-20T21:03:54.732Z,12.50
2019-04-20T21:06:22.400Z,12.00
2019-04-20T21:08:52.364Z,12.30
2019-04-20T21:11:23.531Z,12.30
2019-04-20T21:13:49.229Z,12.10
2019-04-20T21:16:21.035Z,12.10
2019-04-20T21:19:02.043Z,11.90
2019-04-20T21:21:27.747Z,11.70
2019-04-20T21:23:53.148Z,11.60
2019-04-20T21:26:20.271Z,11.40
2019-04-20T21:28:43.933Z,11.30
2019-04-20T21:31:14.615Z,11.30
2019-04-20T21:33:40.792Z,12.10
2019-04-20T21:36:09.196Z,11.30
2019-04-20T21:38:40.738Z,11.10
2019-04-20T21:41:12.590Z,11.10
2019-04-20T21:43:38.764Z,11.00
2019-04-20T21:46:06.665Z,10.80
2019-04-20T21:48:49.210Z,10.70
2019-04-20T21:51:18.904Z,10.70
2019-04-20T21:53:33.600Z,10.70
2019-04-20T21:55:59.803Z,10.80
2019-04-20T21:58:32.257Z,10.80
2019-04-20T22:01:10.831Z,10.60
2019-04-20T22:03:27.816Z,10.50
2019-04-20T22:06:04.752Z,11.40
2019-04-20T22:08:59.799Z,10.60
2019-04-20T22:11:25.968Z,10.60
2019-04-20T22:13:54.605Z,10.50
2019-04-20T22:16:22.691Z,10.40
2019-04-20T22:19:00.445Z,10.40
2019-04-20T22:21:26.552Z,10.40
2019-04-20T22:24:05.682Z,10.30
2019-04-20T22:26:26.360Z,10.30
2019-04-20T22:28:45.664Z,10.20
2019-04-20T22:31:13.896Z,10.20
2019-04-20T22:33:43.327Z,10.10
2019-04-20T22:36:11.340Z,10.00
2019-04-20T22:39:05.428Z,10.00
2019-04-20T22:41:36.358Z,10.00
2019-04-20T22:44:11.574Z,9.90
2019-04-20T22:46:37.025Z,9.90
2019-04-20T22:49:20.947Z,9.90
2019-04-20T22:51:44.724Z,9.80
2019-04-20T22:54:16.972Z,9.80
2019-04-20T22:56:43.764Z,9.70
2019-04-20T22:59:07.359Z,9.60
2019-04-20T23:01:35.070Z,9.60
2019-04-20T23:03:56.853Z,9.50
2019-04-20T23:06:25.298Z,9.40
2019-04-20T23:08:59.543Z,9.30
2019-04-20T23:11:27.010Z,9.30
2019-04-20T23:13:52.061Z,9.20
2019-04-20T23:16:20.979Z,9.20
2019-04-20T23:18:48.300Z,9.20
2019-04-20T23:21:17.402Z,9.30
2019-04-20T23:23:43.990Z,9.30
2019-04-20T23:26:11.250Z,9.10
2019-04-20T23:28:46.890Z,10.30
2019-04-20T23:31:16.412Z,9.00
2019-04-20T23:33:38.092Z,9.00
2019-04-20T23:36:06.790Z,8.90
2019-04-20T23:38:34.760Z,8.80
2019-04-20T23:41:01.887Z,8.70
2019-04-20T23:43:38.468Z,8.60
2019-04-20T23:46:43.325Z,8.60
2019-04-20T23:49:24.019Z,8.50
2019-04-20T23:52:05.935Z,8.60
2019-04-20T23:54:20.928Z,8.50
2019-04-20T23:56:45.832Z,8.40
2019-04-20T23:59:13.205Z,8.40
